sim
Sign-in with your pilot id or email,
or register
Callsign
Passwort

Schedule Details

Flight Number: RYR1819
Departure: Eindhoven Airport (EHEH) at 18:40
Arrival: Thessaloniki International Airport (LGTS) at 21:30
Route: Ryanair Passenger Schedule. Enter filed route here before submitting Pirep.

Weather Information
Getting current METAR information for EHEH 211525Z AUTO 24008KT 190V290 9999 -DZ FEW020 OVC031 13/06 Q1027 REDZ BLU 25012KT 9999 SCT025 BKN035
Getting current METAR information for LGTS 211520Z 35006KT CAVOK 16/00 Q1021 NOSIG

Schedule Frequency

Route Map